Time;durP1;ratioP1;P1;durP2;ratioP2;P2;SDS_P1;SDS_P2;PMS_P1;PMS_P2;Temp;Humidity;BMP_temperature;BMP_pressure;BME280_temperature;BME280_humidity;BME280_pressure;Samples;Min_cycle;Max_cycle;Signal;HPM_P1;HPM_P2
2021/06/11 00:00:31;;;;;;;5.05;3.63;;;16.80;92.70;;;;;;5029527;28;20771;-84
2021/06/11 00:02:56;;;;;;;5.60;3.08;;;16.80;92.70;;;;;;5030545;28;20039;-84
2021/06/11 00:05:22;;;;;;;6.43;3.53;;;16.70;92.90;;;;;;5031850;28;20014;-84
2021/06/11 00:07:48;;;;;;;5.95;3.67;;;16.60;92.90;;;;;;5027256;28;20034;-85
2021/06/11 00:10:14;;;;;;;7.30;3.45;;;16.50;93.20;;;;;;5030678;28;20031;-86
2021/06/11 00:12:41;;;;;;;5.38;3.38;;;16.40;93.20;;;;;;5030448;28;20548;-86
2021/06/11 00:15:10;;;;;;;4.22;3.22;;;16.40;93.40;;;;;;5030396;28;20032;-86
2021/06/11 00:17:36;;;;;;;4.40;2.83;;;16.30;93.50;;;;;;5015241;28;20061;-85
2021/06/11 00:20:04;;;;;;;6.68;4.15;;;16.40;93.30;;;;;;5028260;28;20067;-87
2021/06/11 00:22:30;;;;;;;6.70;3.47;;;16.30;93.30;;;;;;5026436;28;20036;-83
2021/06/11 00:24:56;;;;;;;5.63;3.72;;;16.30;93.50;;;;;;5019417;28;20033;-87
2021/06/11 00:27:21;;;;;;;5.88;3.42;;;16.20;93.90;;;;;;5028688;28;20061;-85
2021/06/11 00:29:47;;;;;;;8.73;3.80;;;16.10;93.90;;;;;;5028913;28;20061;-85
2021/06/11 00:32:13;;;;;;;5.28;3.92;;;16.10;93.80;;;;;;5030239;28;20021;-86
2021/06/11 00:34:39;;;;;;;3.80;3.47;;;16.10;93.90;;;;;;5028409;28;20041;-86
2021/06/11 00:37:05;;;;;;;5.78;4.25;;;16.00;94.10;;;;;;5025332;28;20100;-86
2021/06/11 00:39:31;;;;;;;7.22;4.57;;;16.00;94.10;;;;;;5026113;28;20037;-86
2021/06/11 00:42:00;;;;;;;8.85;3.90;;;15.90;94.30;;;;;;5029251;28;20087;-85
2021/06/11 00:44:26;;;;;;;4.50;3.83;;;15.90;93.90;;;;;;5015311;28;20018;-87
2021/06/11 00:46:52;;;;;;;5.50;4.20;;;15.80;93.60;;;;;;5024209;28;20090;-86
2021/06/11 00:49:18;;;;;;;4.85;4.15;;;15.80;93.80;;;;;;5026724;28;20447;-86
2021/06/11 00:51:45;;;;;;;5.07;3.97;;;15.80;94.00;;;;;;5020411;28;20056;-86
2021/06/11 00:54:11;;;;;;;7.13;3.97;;;15.70;94.20;;;;;;5028603;28;20025;-86
2021/06/11 00:56:36;;;;;;;5.15;3.92;;;15.60;94.30;;;;;;5028238;28;20047;-87
2021/06/11 00:59:02;;;;;;;4.60;4.13;;;15.40;94.30;;;;;;5030676;28;20038;-86
2021/06/11 01:01:28;;;;;;;6.65;4.30;;;15.30;94.70;;;;;;5028312;28;20017;-86
2021/06/11 01:03:53;;;;;;;6.68;4.78;;;15.20;94.80;;;;;;5027734;28;20026;-86
2021/06/11 01:06:20;;;;;;;6.10;4.43;;;15.20;94.90;;;;;;5023016;28;20026;-86
2021/06/11 01:08:46;;;;;;;6.97;4.50;;;15.20;94.90;;;;;;5030041;28;20041;-86
2021/06/11 01:11:13;;;;;;;8.43;4.53;;;15.20;95.00;;;;;;5024153;28;20034;-85
2021/06/11 01:13:39;;;;;;;6.78;4.20;;;15.10;95.10;;;;;;5022076;28;20017;-86
2021/06/11 01:16:05;;;;;;;4.78;4.38;;;15.00;95.10;;;;;;5027963;28;20075;-86
2021/06/11 01:18:31;;;;;;;6.85;4.97;;;15.00;95.20;;;;;;5027816;28;20430;-86
2021/06/11 01:20:57;;;;;;;6.38;5.40;;;14.90;95.20;;;;;;5026008;28;20059;-85
2021/06/11 01:23:23;;;;;;;6.07;4.13;;;14.90;95.30;;;;;;5031199;28;20049;-85
2021/06/11 01:26:17;;;;;;;6.18;4.72;;;14.90;95.20;;;;;;5027850;28;20485;-86
2021/06/11 01:28:43;;;;;;;5.57;4.05;;;14.80;95.30;;;;;;5025805;28;20041;-85
2021/06/11 01:31:10;;;;;;;7.57;4.25;;;14.90;95.40;;;;;;5029450;28;20108;-87
2021/06/11 01:33:36;;;;;;;7.57;4.05;;;14.80;95.30;;;;;;5029439;28;20478;-87
2021/06/11 01:36:09;;;;;;;8.10;5.10;;;14.80;95.40;;;;;;5013987;28;20080;-86
2021/06/11 01:38:39;;;;;;;5.18;4.68;;;14.70;95.50;;;;;;5029687;28;20398;-86
2021/06/11 01:41:08;;;;;;;5.32;4.50;;;14.70;95.50;;;;;;5045612;28;20032;-87
2021/06/11 01:43:35;;;;;;;6.47;4.40;;;14.70;95.50;;;;;;5027166;28;20026;-86
2021/06/11 01:46:01;;;;;;;7.88;4.68;;;14.60;95.60;;;;;;5027758;28;20026;-87
2021/06/11 01:48:28;;;;;;;6.47;4.68;;;14.60;95.90;;;;;;5026023;28;20028;-86
2021/06/11 01:50:56;;;;;;;8.52;4.50;;;14.60;95.50;;;;;;5024581;28;20018;-86
2021/06/11 01:53:23;;;;;;;7.95;4.95;;;14.60;95.70;;;;;;5042156;28;20502;-86
2021/06/11 01:55:49;;;;;;;6.22;5.32;;;14.60;95.60;;;;;;5027252;28;20499;-87
2021/06/11 01:58:17;;;;;;;6.03;4.60;;;14.60;95.80;;;;;;5019868;28;20026;-85
2021/06/11 02:00:43;;;;;;;5.82;4.50;;;14.40;95.50;;;;;;5017802;28;20025;-85
2021/06/11 02:03:10;;;;;;;8.18;4.60;;;14.40;95.50;;;;;;5025024;28;20474;-85
2021/06/11 02:05:37;;;;;;;8.68;5.78;;;14.50;95.70;;;;;;5027741;28;20021;-86
2021/06/11 02:08:04;;;;;;;6.57;5.30;;;14.50;95.90;;;;;;5028685;28;20458;-85
2021/06/11 02:10:30;;;;;;;6.65;5.70;;;14.50;95.70;;;;;;5029003;28;20030;-85
2021/06/11 02:12:57;;;;;;;8.05;5.53;;;14.40;96.00;;;;;;5027476;28;20041;-86
2021/06/11 02:15:24;;;;;;;6.07;5.47;;;14.40;95.90;;;;;;5029058;28;20025;-86
2021/06/11 02:17:51;;;;;;;5.90;5.30;;;14.30;95.90;;;;;;5028633;28;20029;-86
2021/06/11 02:20:20;;;;;;;6.10;5.13;;;14.40;95.90;;;;;;5029487;28;20039;-87
2021/06/11 02:22:46;;;;;;;6.72;4.68;;;14.40;95.90;;;;;;5024138;28;20026;-85
2021/06/11 02:25:17;;;;;;;7.43;4.90;;;14.30;96.00;;;;;;5025427;28;20056;-86
2021/06/11 02:27:43;;;;;;;6.05;5.43;;;14.20;96.10;;;;;;5026700;28;20032;-86
2021/06/11 02:30:12;;;;;;;6.95;5.15;;;14.10;96.20;;;;;;5028491;28;20105;-86
2021/06/11 02:32:39;;;;;;;6.63;5.85;;;14.10;96.10;;;;;;5029346;28;20080;-86
2021/06/11 02:35:08;;;;;;;6.10;5.25;;;14.10;96.20;;;;;;5027234;28;20030;-86
2021/06/11 02:37:34;;;;;;;6.95;4.78;;;14.00;96.30;;;;;;5026178;28;20559;-86
2021/06/11 02:40:00;;;;;;;6.18;4.50;;;14.10;96.30;;;;;;5028602;28;20013;-86
2021/06/11 02:42:28;;;;;;;6.13;5.43;;;14.10;96.10;;;;;;5027367;28;20029;-86
2021/06/11 02:44:57;;;;;;;5.28;4.78;;;14.20;96.10;;;;;;5029087;28;20022;-86
2021/06/11 02:47:28;;;;;;;5.65;5.15;;;14.10;96.20;;;;;;5028292;28;20033;-86
2021/06/11 02:50:06;;;;;;;4.35;3.95;;;14.10;95.90;;;;;;5027814;28;20052;-86
2021/06/11 02:52:34;;;;;;;5.97;4.32;;;14.00;95.70;;;;;;5028212;28;20052;-85
2021/06/11 02:55:04;;;;;;;7.82;5.10;;;14.00;95.70;;;;;;5029304;28;20022;-85
2021/06/11 02:57:35;;;;;;;6.00;5.00;;;14.00;96.10;;;;;;5028938;28;20014;-86
2021/06/11 03:00:08;;;;;;;6.18;5.25;;;14.00;96.10;;;;;;5014527;28;20467;-85
2021/06/11 03:02:40;;;;;;;6.20;5.60;;;14.00;96.20;;;;;;5024598;28;20068;-86
2021/06/11 03:05:09;;;;;;;5.75;5.15;;;14.00;96.40;;;;;;5032952;28;20026;-87
2021/06/11 03:07:37;;;;;;;6.35;5.00;;;14.10;96.20;;;;;;5027977;28;20060;-85
2021/06/11 03:10:08;;;;;;;8.15;5.55;;;14.20;95.90;;;;;;5023416;28;20109;-87
2021/06/11 03:12:38;;;;;;;7.65;4.93;;;14.30;95.70;;;;;;5031800;28;20029;-87
2021/06/11 03:15:05;;;;;;;6.88;5.43;;;14.30;95.60;;;;;;5031747;28;20017;-87
2021/06/11 03:17:37;;;;;;;6.07;5.47;;;14.30;95.70;;;;;;5032024;28;20109;-86
2021/06/11 03:20:08;;;;;;;7.20;5.03;;;14.40;95.40;;;;;;5031319;28;20053;-86
2021/06/11 03:22:44;;;;;;;6.18;4.47;;;14.40;95.50;;;;;;5029906;28;20017;-85
2021/06/11 03:25:22;;;;;;;6.05;5.45;;;14.40;95.40;;;;;;5026584;28;20033;-85
2021/06/11 03:27:55;;;;;;;6.35;5.10;;;14.60;95.10;;;;;;5030888;28;20496;-85
2021/06/11 03:30:24;;;;;;;6.15;5.55;;;14.80;94.90;;;;;;5026815;28;20026;-85
2021/06/11 03:32:57;;;;;;;8.27;5.50;;;15.00;94.50;;;;;;5030853;28;20060;-85
2021/06/11 03:35:27;;;;;;;7.57;5.18;;;15.30;93.90;;;;;;5024233;28;20448;-86
2021/06/11 03:37:55;;;;;;;8.82;5.35;;;15.30;93.70;;;;;;5029335;28;20099;-86
2021/06/11 03:40:24;;;;;;;6.78;5.20;;;15.50;93.00;;;;;;5028637;28;20021;-85
2021/06/11 03:42:53;;;;;;;10.45;5.00;;;15.60;93.10;;;;;;5031277;28;20037;-84
2021/06/11 03:45:20;;;;;;;7.05;4.93;;;15.90;93.00;;;;;;5030614;28;20032;-85
2021/06/11 03:47:47;;;;;;;8.40;5.10;;;16.10;92.60;;;;;;5029797;28;20034;-85
2021/06/11 03:50:21;;;;;;;9.55;4.93;;;16.20;92.40;;;;;;5031391;28;20563;-85
2021/06/11 03:52:49;;;;;;;8.50;5.82;;;16.30;92.40;;;;;;5028628;28;20379;-85
2021/06/11 03:55:22;;;;;;;8.95;5.10;;;16.40;92.80;;;;;;5027713;28;20025;-86
2021/06/11 03:57:55;;;;;;;6.40;4.95;;;16.50;92.70;;;;;;5030659;28;20029;-86
2021/06/11 04:00:22;;;;;;;8.05;4.90;;;16.80;91.90;;;;;;5027733;28;20388;-84
2021/06/11 04:02:48;;;;;;;9.20;5.55;;;17.20;91.30;;;;;;5031030;28;20064;-86
2021/06/11 04:05:15;;;;;;;20.20;5.88;;;17.80;91.10;;;;;;5031099;28;20033;-86
2021/06/11 04:07:53;;;;;;;23.45;5.80;;;18.30;90.60;;;;;;5029984;28;20030;-86
2021/06/11 04:10:24;;;;;;;10.32;4.57;;;18.30;90.10;;;;;;5029368;28;20037;-86
2021/06/11 04:12:54;;;;;;;7.47;5.00;;;18.10;90.20;;;;;;5027330;28;20029;-87
2021/06/11 04:15:20;;;;;;;7.03;4.47;;;17.90;90.50;;;;;;5027916;28;20074;-86
2021/06/11 04:18:02;;;;;;;10.40;4.45;;;17.70;91.10;;;;;;5029491;28;20030;-86
2021/06/11 04:20:28;;;;;;;8.05;3.55;;;17.60;91.70;;;;;;5028981;28;20033;-87
2021/06/11 04:22:57;;;;;;;9.30;4.03;;;17.90;91.70;;;;;;5027227;28;20438;-87
2021/06/11 04:25:31;;;;;;;5.65;4.20;;;18.40;91.10;;;;;;5028079;28;20029;-86
2021/06/11 04:27:58;;;;;;;6.15;3.78;;;19.30;90.40;;;;;;5029514;28;20112;-87
2021/06/11 04:30:24;;;;;;;7.10;4.43;;;20.20;88.60;;;;;;5029627;28;20037;-86
2021/06/11 04:32:51;;;;;;;6.45;4.40;;;20.90;85.90;;;;;;5029093;28;20052;-85
2021/06/11 04:35:24;;;;;;;5.40;4.28;;;21.70;83.00;;;;;;5030955;28;20053;-87
2021/06/11 04:37:50;;;;;;;5.70;4.50;;;22.40;80.20;;;;;;5026877;28;20042;-86
2021/06/11 04:40:16;;;;;;;6.75;5.07;;;22.80;77.90;;;;;;5028074;28;20040;-87
2021/06/11 04:42:42;;;;;;;8.15;4.85;;;23.10;75.80;;;;;;5027210;28;20029;-87
2021/06/11 04:45:08;;;;;;;12.55;5.35;;;23.30;76.50;;;;;;5028406;28;20048;-86
2021/06/11 04:47:34;;;;;;;7.70;5.20;;;23.00;75.40;;;;;;5028691;28;20029;-87
2021/06/11 04:49:59;;;;;;;10.05;5.78;;;22.80;76.00;;;;;;5045893;28;20037;-86
2021/06/11 04:52:25;;;;;;;9.23;5.20;;;22.30;75.60;;;;;;5028029;28;20022;-87
2021/06/11 04:54:52;;;;;;;11.15;5.07;;;21.60;77.70;;;;;;5026742;28;20029;-86
2021/06/11 04:57:17;;;;;;;8.43;4.80;;;21.10;82.50;;;;;;5028403;28;20382;-86
2021/06/11 04:59:43;;;;;;;8.20;5.32;;;20.60;83.00;;;;;;5029307;28;20030;-85
2021/06/11 05:02:09;;;;;;;8.88;4.80;;;20.20;84.50;;;;;;5027850;28;20017;-86
2021/06/11 05:04:35;;;;;;;6.82;5.28;;;19.80;86.00;;;;;;5030280;28;20032;-86
2021/06/11 05:07:01;;;;;;;9.55;4.75;;;19.70;87.70;;;;;;5026364;28;20168;-86
2021/06/11 05:09:27;;;;;;;14.55;4.63;;;19.60;88.30;;;;;;5029379;28;20065;-86
2021/06/11 05:11:53;;;;;;;80.15;10.00;;;19.50;87.40;;;;;;5028460;28;20022;-86
2021/06/11 05:14:19;;;;;;;7.25;5.10;;;19.40;88.90;;;;;;5029443;28;20112;-86
2021/06/11 05:16:45;;;;;;;8.18;5.18;;;19.30;87.60;;;;;;5026096;28;20021;-86
2021/06/11 05:19:11;;;;;;;8.20;4.45;;;19.30;89.50;;;;;;5029264;28;20033;-86
2021/06/11 05:21:37;;;;;;;15.80;5.57;;;19.40;89.20;;;;;;5025892;28;20037;-86
2021/06/11 05:24:03;;;;;;;7.15;4.88;;;19.40;88.70;;;;;;5025374;28;20040;-86
2021/06/11 05:26:28;;;;;;;6.43;4.32;;;19.40;89.10;;;;;;5030790;28;20022;-86
2021/06/11 05:28:54;;;;;;;6.00;4.72;;;19.30;89.40;;;;;;5025850;28;20037;-86
2021/06/11 05:31:20;;;;;;;12.55;4.18;;;19.30;89.00;;;;;;5027161;28;20420;-86
2021/06/11 05:33:45;;;;;;;13.40;4.45;;;19.30;89.50;;;;;;5027743;28;20049;-85
2021/06/11 05:36:11;;;;;;;10.23;4.63;;;19.40;89.00;;;;;;5027478;28;20025;-85
2021/06/11 05:38:37;;;;;;;8.95;4.57;;;19.50;89.80;;;;;;5030063;28;20544;-86
2021/06/11 05:41:03;;;;;;;11.55;4.85;;;19.80;89.00;;;;;;5027549;28;20124;-87
2021/06/11 05:43:30;;;;;;;7.22;4.57;;;19.90;88.10;;;;;;5027195;28;20017;-85
2021/06/11 06:37:14;;;;;;;10.50;4.60;;;20.90;84.10;;;;;;5101097;27;20386;-84
2021/06/11 06:39:41;;;;;;;12.35;4.85;;;21.00;85.40;;;;;;5086610;28;20024;-86
2021/06/11 06:42:07;;;;;;;10.85;4.25;;;21.10;84.50;;;;;;5084915;28;20097;-85
2021/06/11 06:44:33;;;;;;;9.90;4.35;;;21.30;84.50;;;;;;5071557;28;20028;-87
2021/06/11 06:46:59;;;;;;;10.75;4.82;;;21.40;83.20;;;;;;5084196;28;20466;-87
2021/06/11 06:49:25;;;;;;;22.25;4.90;;;21.50;83.40;;;;;;5081846;28;20043;-85
2021/06/11 06:51:50;;;;;;;12.07;4.85;;;21.60;82.80;;;;;;5081649;28;20025;-88
2021/06/11 06:54:16;;;;;;;25.73;5.18;;;21.60;82.40;;;;;;5080959;28;20035;-88
2021/06/11 06:56:42;;;;;;;8.70;4.18;;;21.70;82.60;;;;;;5081444;28;20119;-86
2021/06/11 06:59:07;;;;;;;7.47;4.38;;;21.70;82.20;;;;;;5085822;28;20074;-88
2021/06/11 07:01:33;;;;;;;7.72;3.90;;;21.70;82.40;;;;;;5080926;28;20028;-88
2021/06/11 07:04:01;;;;;;;19.15;4.07;;;21.70;82.10;;;;;;5084202;28;20037;-87
2021/06/11 07:06:27;;;;;;;8.82;4.72;;;21.80;82.10;;;;;;5079755;28;20103;-86
2021/06/11 07:08:54;;;;;;;15.35;4.03;;;21.90;81.70;;;;;;5081966;28;20028;-87
2021/06/11 07:11:20;;;;;;;8.20;3.53;;;21.90;80.10;;;;;;5082795;28;20039;-86
2021/06/11 07:13:47;;;;;;;6.05;3.33;;;22.00;78.60;;;;;;5078541;28;20074;-86
2021/06/11 07:16:13;;;;;;;7.45;3.60;;;22.30;79.20;;;;;;5077560;28;20135;-86
2021/06/11 07:18:39;;;;;;;11.43;4.80;;;22.50;79.80;;;;;;5075171;28;20028;-86
2021/06/11 07:21:05;;;;;;;9.93;3.40;;;22.60;78.20;;;;;;5079049;28;20534;-86
2021/06/11 07:23:32;;;;;;;17.17;3.80;;;22.60;76.40;;;;;;5076766;28;20032;-85
2021/06/11 07:25:59;;;;;;;22.67;4.00;;;22.80;75.60;;;;;;5077786;28;20044;-85
2021/06/11 07:28:28;;;;;;;12.30;3.95;;;22.90;76.30;;;;;;5079114;28;20038;-85
2021/06/11 07:30:55;;;;;;;13.98;4.65;;;22.90;77.00;;;;;;5078138;28;20081;-86
2021/06/11 07:33:21;;;;;;;10.85;4.25;;;22.80;77.60;;;;;;5078046;28;20035;-88
2021/06/11 07:35:46;;;;;;;10.10;4.70;;;22.70;77.90;;;;;;5078223;28;20048;-88
2021/06/11 07:38:12;;;;;;;12.25;5.10;;;22.70;78.60;;;;;;5084692;28;20056;-87
2021/06/11 07:40:38;;;;;;;15.65;4.88;;;22.70;78.50;;;;;;5080511;28;20081;-87
2021/06/11 07:43:04;;;;;;;12.68;4.38;;;22.70;79.40;;;;;;5085410;28;20020;-87
2021/06/11 07:45:31;;;;;;;14.00;4.82;;;22.70;79.10;;;;;;5081837;28;20558;-86
2021/06/11 07:47:57;;;;;;;15.43;5.47;;;22.80;78.90;;;;;;5072455;28;20107;-86
2021/06/11 07:50:22;;;;;;;15.98;5.15;;;22.70;78.00;;;;;;5073813;28;20104;-86
2021/06/11 07:52:49;;;;;;;12.43;4.30;;;22.70;78.40;;;;;;5065226;28;21181;-87
2021/06/11 07:55:15;;;;;;;12.68;4.88;;;22.70;77.50;;;;;;5069133;28;20131;-87
2021/06/11 07:57:41;;;;;;;20.08;4.95;;;22.80;78.00;;;;;;5066528;28;20032;-87
2021/06/11 08:00:08;;;;;;;12.05;4.75;;;22.90;78.60;;;;;;5066051;28;20017;-87
2021/06/11 08:02:33;;;;;;;11.00;4.68;;;23.00;78.50;;;;;;5078579;28;20036;-86
2021/06/11 08:04:59;;;;;;;16.40;4.45;;;23.10;77.50;;;;;;5065781;28;20016;-86
2021/06/11 08:07:31;;;;;;;16.10;5.15;;;23.20;77.00;;;;;;5064119;28;20055;-88
2021/06/11 08:09:58;;;;;;;9.68;4.25;;;23.30;77.00;;;;;;5065811;28;20021;-88
2021/06/11 08:12:27;;;;;;;8.73;4.95;;;23.30;76.40;;;;;;5065379;28;20013;-87
2021/06/11 08:14:53;;;;;;;13.13;4.55;;;23.40;75.60;;;;;;5065230;28;20409;-87
2021/06/11 08:17:19;;;;;;;11.05;4.90;;;23.30;75.60;;;;;;5064001;28;20031;-87
2021/06/11 08:19:44;;;;;;;9.57;4.10;;;23.40;74.30;;;;;;5064979;28;20040;-88
2021/06/11 08:22:10;;;;;;;6.82;4.45;;;23.80;75.00;;;;;;5065575;28;20028;-87
2021/06/11 08:24:36;;;;;;;86.95;9.75;;;24.00;73.30;;;;;;5064690;28;20021;-86
2021/06/11 08:27:02;;;;;;;7.28;3.30;;;24.30;73.30;;;;;;5063920;28;20032;-86
2021/06/11 08:29:27;;;;;;;9.05;4.88;;;24.30;72.30;;;;;;5062520;28;20033;-86
2021/06/11 08:31:53;;;;;;;12.52;4.72;;;24.40;72.60;;;;;;5063420;28;20032;-87
2021/06/11 08:34:19;;;;;;;13.77;3.97;;;24.80;72.20;;;;;;5063300;28;20490;-87
2021/06/11 08:36:46;;;;;;;7.80;4.07;;;24.80;72.40;;;;;;5054917;28;20498;-87
2021/06/11 08:39:12;;;;;;;5.32;3.78;;;24.50;70.40;;;;;;5065213;28;20458;-88
2021/06/11 08:41:38;;;;;;;5.20;3.80;;;24.40;72.80;;;;;;5067750;28;20116;-87
2021/06/11 08:44:06;;;;;;;9.20;3.92;;;24.20;71.10;;;;;;5068397;28;20016;-87
2021/06/11 08:46:32;;;;;;;6.78;3.35;;;24.30;71.70;;;;;;5066943;28;20037;-88
2021/06/11 08:49:01;;;;;;;7.60;3.20;;;24.20;70.40;;;;;;5065405;28;20382;-87
2021/06/11 08:51:28;;;;;;;8.43;3.70;;;24.20;72.10;;;;;;5066706;28;20033;-88
2021/06/11 08:53:54;;;;;;;6.35;3.50;;;24.20;71.20;;;;;;5067057;28;20047;-87
2021/06/11 08:56:19;;;;;;;9.30;4.35;;;24.20;71.00;;;;;;5069144;28;20024;-86
2021/06/11 08:58:45;;;;;;;9.43;3.58;;;24.00;71.80;;;;;;5066109;28;20081;-85
2021/06/11 09:01:11;;;;;;;5.93;3.35;;;23.90;72.50;;;;;;5065607;28;20111;-87
2021/06/11 09:03:49;;;;;;;6.70;3.03;;;23.90;71.80;;;;;;5080371;28;20032;-87
2021/06/11 09:06:17;;;;;;;7.60;2.72;;;23.90;72.00;;;;;;5067682;28;20100;-88
2021/06/11 09:09:01;;;;;;;7.35;3.00;;;23.80;72.60;;;;;;5065454;28;20028;-87
2021/06/11 09:11:30;;;;;;;7.90;2.80;;;23.90;70.70;;;;;;5066465;28;20032;-87
2021/06/11 09:14:07;;;;;;;6.40;3.00;;;24.00;70.60;;;;;;5063367;28;20485;-88
2021/06/11 09:16:48;;;;;;;37.08;5.93;;;24.30;70.30;;;;;;5065893;28;20505;-86
2021/06/11 09:19:23;;;;;;;9.40;3.38;;;24.40;70.80;;;;;;5066492;28;20389;-87
2021/06/11 09:21:55;;;;;;;5.28;3.05;;;24.20;70.80;;;;;;5066480;28;20042;-87
2021/06/11 09:26:59;;;;;;;8.90;3.10;;;24.40;72.50;;;;;;5066635;28;20059;-87
2021/06/11 09:29:27;;;;;;;9.32;3.13;;;24.40;73.60;;;;;;5068227;28;20039;-88
2021/06/11 09:31:53;;;;;;;5.72;3.13;;;24.40;71.00;;;;;;5067210;28;20050;-87
2021/06/11 09:34:25;;;;;;;6.95;2.85;;;24.50;68.80;;;;;;5065241;28;20035;-86
2021/06/11 09:37:04;;;;;;;6.32;2.90;;;24.50;68.70;;;;;;5065156;28;20084;-86
2021/06/11 09:39:51;;;;;;;6.82;2.92;;;24.60;67.80;;;;;;5065975;28;20376;-87
2021/06/11 09:42:26;;;;;;;7.03;2.70;;;24.90;69.50;;;;;;5063759;28;20032;-85
2021/06/11 09:44:57;;;;;;;6.82;3.30;;;24.90;69.00;;;;;;5064199;28;20484;-87
2021/06/11 09:48:01;;;;;;;8.98;3.22;;;24.70;68.80;;;;;;5068703;28;20048;-84
2021/06/11 09:50:36;;;;;;;8.18;2.78;;;24.70;69.30;;;;;;5053551;28;20533;-86
2021/06/11 09:53:03;;;;;;;8.25;3.17;;;24.50;70.10;;;;;;5067603;28;20028;-85
2021/06/11 09:55:33;;;;;;;14.45;2.90;;;24.50;69.60;;;;;;5066453;28;20052;-86
2021/06/11 09:58:29;;;;;;;5.85;2.80;;;24.50;70.60;;;;;;5064635;28;20324;-87
2021/06/11 10:01:17;;;;;;;6.93;3.22;;;24.50;68.10;;;;;;5060324;28;20048;-86
2021/06/11 10:03:46;;;;;;;7.63;2.72;;;24.40;68.80;;;;;;5065477;28;20425;-87
2021/06/11 10:06:14;;;;;;;9.20;2.65;;;24.30;69.70;;;;;;5069512;28;20540;-87
2021/06/11 10:08:43;;;;;;;10.25;3.28;;;24.40;68.50;;;;;;5066289;28;20640;-86
2021/06/11 10:11:11;;;;;;;7.38;2.85;;;24.40;69.40;;;;;;5067882;28;20085;-87
2021/06/11 10:13:37;;;;;;;5.53;2.65;;;24.40;68.50;;;;;;5065213;28;20016;-87
2021/06/11 10:16:12;;;;;;;10.07;3.38;;;24.40;69.50;;;;;;5066240;28;20382;-86
2021/06/11 10:18:38;;;;;;;7.82;3.05;;;24.50;70.80;;;;;;5062928;28;20025;-86
2021/06/11 10:21:06;;;;;;;6.97;2.50;;;24.60;70.10;;;;;;5066438;28;20060;-86
2021/06/11 10:23:33;;;;;;;10.88;3.05;;;24.60;69.30;;;;;;5066145;28;20024;-85
2021/06/11 10:26:02;;;;;;;6.28;2.70;;;24.60;68.60;;;;;;5065274;28;20064;-86
2021/06/11 10:28:37;;;;;;;8.20;3.05;;;24.50;68.90;;;;;;5065232;28;20052;-85
2021/06/11 10:31:05;;;;;;;11.00;3.90;;;24.50;69.30;;;;;;5066323;28;20032;-86
2021/06/11 10:33:43;;;;;;;6.53;3.13;;;24.50;68.70;;;;;;5066769;28;20060;-86
2021/06/11 10:36:37;;;;;;;6.00;2.53;;;24.50;69.10;;;;;;5064186;28;20474;-86
2021/06/11 10:39:09;;;;;;;8.00;2.97;;;24.40;67.40;;;;;;5060558;28;20525;-87
2021/06/11 10:42:01;;;;;;;7.63;3.03;;;24.50;69.70;;;;;;5066268;28;20036;-86
2021/06/11 10:44:46;;;;;;;4.93;2.60;;;24.60;68.00;;;;;;5065449;28;20694;-86
2021/06/11 10:47:15;;;;;;;8.00;2.90;;;24.60;67.70;;;;;;5067276;28;20043;-86
2021/06/11 10:49:59;;;;;;;5.65;2.85;;;24.70;67.90;;;;;;5066698;28;20037;-86
2021/06/11 10:52:43;;;;;;;5.88;2.42;;;24.80;66.90;;;;;;5063689;28;20031;-86
2021/06/11 10:55:17;;;;;;;3.42;2.22;;;24.60;66.70;;;;;;5064629;28;20082;-85
2021/06/11 10:58:06;;;;;;;6.50;2.88;;;24.50;66.10;;;;;;5065512;28;20037;-86
2021/06/11 11:00:35;;;;;;;5.30;2.35;;;24.50;67.90;;;;;;5056457;28;20064;-85
2021/06/11 11:03:03;;;;;;;5.15;2.83;;;24.60;68.10;;;;;;5078972;28;20020;-85
2021/06/11 11:05:40;;;;;;;7.38;2.47;;;24.60;67.90;;;;;;5065407;28;20084;-85
2021/06/11 11:08:07;;;;;;;4.95;2.72;;;24.70;67.00;;;;;;5066432;28;20036;-85
2021/06/11 11:10:39;;;;;;;6.70;2.45;;;24.60;66.00;;;;;;5065229;28;20108;-87
2021/06/11 11:13:13;;;;;;;8.15;2.70;;;24.50;66.60;;;;;;5066204;28;20385;-87
2021/06/11 11:15:39;;;;;;;11.63;2.13;;;24.50;66.60;;;;;;5065684;28;20465;-88
2021/06/11 11:18:15;;;;;;;3.58;2.10;;;24.60;67.30;;;;;;5066897;28;20021;-85
2021/06/11 11:20:43;;;;;;;6.88;2.80;;;24.50;67.10;;;;;;5062378;28;20033;-86
2021/06/11 11:23:17;;;;;;;5.03;2.20;;;24.50;65.40;;;;;;5068121;28;20025;-87
2021/06/11 11:25:43;;;;;;;10.77;2.10;;;24.40;66.70;;;;;;5069397;28;20025;-88
2021/06/11 11:28:10;;;;;;;5.90;2.15;;;24.50;66.40;;;;;;5070270;28;20111;-87
2021/06/11 11:30:38;;;;;;;7.45;2.53;;;24.50;66.10;;;;;;5069269;28;20029;-86
2021/06/11 11:33:05;;;;;;;8.65;2.53;;;24.50;65.30;;;;;;5081377;28;20035;-84
2021/06/11 11:35:33;;;;;;;7.60;2.53;;;24.20;64.90;;;;;;5069372;28;20498;-86
2021/06/11 11:38:00;;;;;;;8.40;2.53;;;24.10;67.30;;;;;;5067936;28;20043;-86
2021/06/11 11:40:26;;;;;;;4.68;2.28;;;24.20;67.10;;;;;;5069627;28;20032;-85
2021/06/11 11:42:54;;;;;;;5.97;2.58;;;24.20;65.40;;;;;;5068465;28;20432;-87
2021/06/11 11:45:24;;;;;;;7.95;2.33;;;24.20;64.30;;;;;;5070070;28;20525;-87
2021/06/11 11:47:51;;;;;;;4.75;2.22;;;24.20;64.40;;;;;;5068381;28;21347;-87
2021/06/11 11:50:17;;;;;;;57.00;6.15;;;24.20;63.00;;;;;;5069676;28;20059;-88
2021/06/11 11:52:42;;;;;;;6.72;1.88;;;24.30;64.70;;;;;;5068747;28;20063;-87
2021/06/11 11:55:09;;;;;;;6.70;2.00;;;24.20;65.80;;;;;;5069003;28;20030;-86
2021/06/11 11:57:34;;;;;;;6.90;2.28;;;24.30;66.60;;;;;;5070107;28;20016;-88
2021/06/11 12:00:00;;;;;;;9.77;2.35;;;24.30;61.40;;;;;;5070829;28;20024;-86
2021/06/11 12:02:27;;;;;;;7.00;2.05;;;24.30;63.40;;;;;;5072237;28;20417;-86
2021/06/11 12:04:53;;;;;;;5.53;1.85;;;24.40;63.40;;;;;;5066487;28;20386;-88
2021/06/11 12:07:19;;;;;;;6.60;2.15;;;24.20;63.50;;;;;;5068545;28;20048;-86
2021/06/11 12:09:45;;;;;;;3.88;2.17;;;24.20;65.20;;;;;;5069241;28;20147;-88
2021/06/11 12:12:11;;;;;;;3.83;2.33;;;24.20;64.00;;;;;;5070513;28;20411;-87
2021/06/11 12:14:36;;;;;;;7.13;1.63;;;24.20;63.70;;;;;;5067179;28;20104;-84
2021/06/11 12:17:03;;;;;;;6.05;1.67;;;24.10;62.20;;;;;;5070035;28;20032;-86
2021/06/11 12:19:29;;;;;;;5.28;1.48;;;24.10;62.70;;;;;;5067775;28;20026;-87
2021/06/11 12:21:55;;;;;;;6.45;2.28;;;24.20;63.20;;;;;;5067933;28;20119;-87
2021/06/11 12:24:20;;;;;;;5.63;2.15;;;24.30;62.20;;;;;;5068615;28;20025;-85
2021/06/11 12:26:46;;;;;;;4.75;1.83;;;24.30;61.20;;;;;;5068303;28;20413;-86
2021/06/11 12:29:13;;;;;;;6.28;1.98;;;24.30;61.00;;;;;;5071377;28;20379;-86
2021/06/11 12:31:39;;;;;;;5.00;1.60;;;24.40;61.00;;;;;;5069099;28;20511;-86
2021/06/11 12:34:05;;;;;;;3.72;1.33;;;24.50;60.10;;;;;;5070405;28;20111;-86
2021/06/11 12:36:31;;;;;;;4.20;1.77;;;24.60;60.90;;;;;;5064188;28;20042;-86
2021/06/11 12:38:57;;;;;;;9.15;2.25;;;24.70;61.00;;;;;;5067708;28;20036;-86
2021/06/11 12:41:23;;;;;;;5.32;1.88;;;24.60;61.30;;;;;;5071071;28;20025;-87
2021/06/11 12:46:33;;;;;;;4.45;1.60;;;24.50;62.20;;;;;;5068496;28;20098;-86
2021/06/11 12:48:59;;;;;;;6.95;1.88;;;24.50;60.90;;;;;;5066209;28;20449;-85
2021/06/11 12:51:27;;;;;;;4.88;1.73;;;24.50;60.30;;;;;;5064683;28;20021;-86
2021/06/11 12:53:53;;;;;;;7.32;1.90;;;24.40;60.00;;;;;;5065232;28;20031;-89
2021/06/11 12:56:19;;;;;;;6.00;2.15;;;24.60;61.70;;;;;;5067735;28;20111;-87
2021/06/11 12:58:45;;;;;;;5.13;1.75;;;24.70;60.10;;;;;;5065426;28;20025;-88
2021/06/11 13:01:11;;;;;;;3.58;1.27;;;24.70;58.60;;;;;;5062370;28;20028;-87
2021/06/11 13:03:36;;;;;;;2.70;1.70;;;24.80;59.80;;;;;;5064837;28;20035;-86
2021/06/11 13:06:03;;;;;;;5.35;1.42;;;24.70;59.00;;;;;;5066635;28;20109;-87
2021/06/11 13:08:29;;;;;;;8.75;1.48;;;24.60;58.20;;;;;;5064069;28;20074;-90
2021/06/11 13:10:54;;;;;;;5.28;1.38;;;24.70;57.10;;;;;;5067130;28;20688;-89
2021/06/11 13:13:20;;;;;;;6.43;1.17;;;24.70;55.40;;;;;;5064431;28;20035;-87
2021/06/11 13:15:46;;;;;;;3.22;1.05;;;24.90;57.30;;;;;;5066118;28;20047;-88
2021/06/11 13:18:12;;;;;;;4.63;1.23;;;24.80;56.00;;;;;;5064381;28;20492;-85
2021/06/11 13:20:39;;;;;;;6.20;2.05;;;24.80;57.40;;;;;;5063834;28;20036;-87
2021/06/11 13:23:05;;;;;;;6.00;1.77;;;24.80;60.30;;;;;;5066069;28;20076;-87
2021/06/11 13:25:32;;;;;;;11.30;1.67;;;24.80;61.00;;;;;;5064156;28;20045;-86
2021/06/11 13:28:00;;;;;;;4.32;1.70;;;24.70;59.90;;;;;;5066052;28;20045;-88
2021/06/11 13:30:26;;;;;;;4.07;1.88;;;24.50;61.70;;;;;;5063956;28;20028;-86
2021/06/11 13:32:51;;;;;;;4.65;1.95;;;24.30;60.40;;;;;;5063239;28;20025;-88
2021/06/11 13:35:17;;;;;;;6.97;1.50;;;24.30;62.10;;;;;;5064043;28;20870;-88
2021/06/11 13:37:43;;;;;;;3.10;1.40;;;24.20;60.00;;;;;;5063459;28;20040;-88
2021/06/11 13:40:10;;;;;;;5.03;1.35;;;24.20;59.70;;;;;;5064630;28;20090;-87
2021/06/11 13:42:35;;;;;;;3.47;1.30;;;24.10;57.70;;;;;;5065115;28;20086;-88
2021/06/11 13:45:01;;;;;;;1.92;1.20;;;24.20;56.70;;;;;;5063747;28;20028;-86
2021/06/11 13:47:27;;;;;;;12.98;1.88;;;24.20;57.70;;;;;;5067356;28;20500;-87